createdAt,value
2023-05-22T00:01:11.277Z,16.83
2023-05-22T00:03:37.675Z,16.76
2023-05-22T00:06:04.119Z,16.75
2023-05-22T00:08:30.488Z,16.71
2023-05-22T00:10:56.864Z,16.80
2023-05-22T00:13:23.221Z,16.75
2023-05-22T00:15:49.609Z,16.72
2023-05-22T00:18:15.991Z,16.74
2023-05-22T00:20:42.338Z,16.66
2023-05-22T00:23:08.720Z,16.62
2023-05-22T00:25:35.070Z,16.59
2023-05-22T00:28:01.434Z,16.57
2023-05-22T00:30:27.818Z,16.51
2023-05-22T00:32:54.206Z,16.48
2023-05-22T00:35:20.574Z,16.39
2023-05-22T00:37:46.968Z,16.28
2023-05-22T00:40:13.351Z,16.02
2023-05-22T00:42:39.725Z,16.03
2023-05-22T00:45:06.080Z,15.94
2023-05-22T00:47:32.504Z,15.88
2023-05-22T00:49:58.901Z,15.93
2023-05-22T00:52:25.274Z,15.87
2023-05-22T00:54:51.632Z,15.82
2023-05-22T00:57:17.991Z,15.79
2023-05-22T00:59:44.361Z,15.79
2023-05-22T01:02:10.807Z,15.68
2023-05-22T01:04:37.189Z,15.72
2023-05-22T01:07:03.549Z,15.67
2023-05-22T01:09:30.015Z,15.62
2023-05-22T01:11:56.382Z,15.60
2023-05-22T01:14:22.757Z,15.53
2023-05-22T01:16:49.130Z,15.41
2023-05-22T01:19:15.617Z,15.33
2023-05-22T01:21:42.030Z,15.31
2023-05-22T01:24:08.426Z,15.20
2023-05-22T01:26:34.805Z,15.09
2023-05-22T01:29:01.185Z,14.89
2023-05-22T01:31:27.533Z,14.90
2023-05-22T01:33:53.995Z,14.81
2023-05-22T01:36:20.537Z,14.83
2023-05-22T01:38:46.906Z,14.79
2023-05-22T01:41:13.288Z,14.84
2023-05-22T01:43:39.641Z,14.81
2023-05-22T01:46:06.002Z,14.75
2023-05-22T01:48:32.386Z,14.73
2023-05-22T01:50:58.760Z,14.71
2023-05-22T01:53:25.122Z,14.64
2023-05-22T01:55:51.491Z,14.65
2023-05-22T01:58:17.885Z,14.64
2023-05-22T02:00:44.295Z,14.68
2023-05-22T02:03:10.912Z,14.65
2023-05-22T02:05:37.396Z,14.64
2023-05-22T02:08:03.786Z,14.70
2023-05-22T02:10:30.162Z,14.72
2023-05-22T02:12:56.516Z,14.76
2023-05-22T02:15:22.871Z,14.76
2023-05-22T02:17:49.328Z,14.72
2023-05-22T02:20:15.797Z,14.67
2023-05-22T02:22:42.170Z,14.62
2023-05-22T02:25:08.540Z,14.54
2023-05-22T02:27:34.904Z,14.52
2023-05-22T02:30:01.298Z,14.53
2023-05-22T02:32:27.666Z,14.57
2023-05-22T02:34:54.863Z,14.50
2023-05-22T02:37:21.300Z,14.51
2023-05-22T02:39:47.657Z,14.62
2023-05-22T02:42:14.028Z,14.62
2023-05-22T02:44:40.384Z,14.58
2023-05-22T02:47:06.764Z,14.54
2023-05-22T02:49:33.114Z,14.47
2023-05-22T02:51:59.472Z,14.51
2023-05-22T02:54:25.826Z,14.42
2023-05-22T02:56:52.185Z,14.41
2023-05-22T02:59:18.575Z,14.41
2023-05-22T03:01:44.949Z,14.45
2023-05-22T03:04:11.339Z,14.35
2023-05-22T03:06:37.766Z,14.39
2023-05-22T03:09:04.121Z,14.30
2023-05-22T03:11:30.491Z,14.31
2023-05-22T03:13:56.831Z,14.19
2023-05-22T03:16:23.379Z,14.08
2023-05-22T03:18:49.782Z,14.03
2023-05-22T03:21:16.142Z,14.02
2023-05-22T03:23:42.507Z,14.17
2023-05-22T03:26:08.905Z,14.12
2023-05-22T03:28:35.280Z,14.01
2023-05-22T03:31:01.650Z,14.01
2023-05-22T03:33:28.071Z,13.97
2023-05-22T03:35:54.495Z,13.88
2023-05-22T03:38:20.856Z,13.85
2023-05-22T03:40:47.224Z,13.80
2023-05-22T03:43:13.601Z,13.75
2023-05-22T03:45:40.005Z,13.74
2023-05-22T03:48:06.463Z,13.73
2023-05-22T03:50:32.904Z,13.84
2023-05-22T03:52:59.257Z,13.86
2023-05-22T03:55:25.593Z,13.83
2023-05-22T03:57:51.950Z,13.82
2023-05-22T04:00:18.302Z,13.91
2023-05-22T04:02:44.835Z,13.94
2023-05-22T04:05:11.501Z,14.04
2023-05-22T04:07:37.906Z,14.09
2023-05-22T04:10:04.277Z,14.08
2023-05-22T04:12:30.648Z,14.16
2023-05-22T04:14:56.997Z,13.88
2023-05-22T04:17:23.421Z,13.85
2023-05-22T04:19:49.839Z,13.88
2023-05-22T04:22:16.207Z,13.98
2023-05-22T04:24:42.557Z,14.01
2023-05-22T04:27:08.932Z,14.06
2023-05-22T04:29:35.346Z,14.12
2023-05-22T04:32:01.720Z,14.19
2023-05-22T04:34:28.090Z,14.24
2023-05-22T04:36:54.435Z,14.31
2023-05-22T04:39:20.801Z,14.34
2023-05-22T04:41:47.172Z,14.34
2023-05-22T04:44:13.517Z,14.39
2023-05-22T04:46:39.907Z,14.43
2023-05-22T04:49:06.355Z,14.43
2023-05-22T04:51:37.832Z,14.42
2023-05-22T04:54:04.351Z,14.45
2023-05-22T04:56:37.003Z,14.43
2023-05-22T04:59:03.786Z,14.47
2023-05-22T05:01:31.718Z,14.42
2023-05-22T05:03:59.548Z,14.49
2023-05-22T05:06:25.941Z,14.57
2023-05-22T05:08:52.336Z,14.64
2023-05-22T05:11:18.692Z,14.71
2023-05-22T05:13:45.049Z,14.78
2023-05-22T05:16:11.445Z,14.84
2023-05-22T05:18:37.934Z,14.90
2023-05-22T05:21:04.297Z,15.02
2023-05-22T05:23:30.655Z,15.17
2023-05-22T05:25:57.035Z,15.36
2023-05-22T05:28:23.460Z,15.45
2023-05-22T05:30:49.830Z,15.59
2023-05-22T05:33:16.267Z,15.58
2023-05-22T05:35:43.126Z,15.53
2023-05-22T05:38:09.660Z,15.55
2023-05-22T05:40:36.011Z,15.53
2023-05-22T05:43:02.384Z,15.60
2023-05-22T05:45:28.781Z,15.74
2023-05-22T05:47:55.194Z,15.79
2023-05-22T05:50:21.585Z,15.84
2023-05-22T05:52:47.990Z,15.98
2023-05-22T05:55:14.358Z,16.11
2023-05-22T05:57:40.724Z,16.15
2023-05-22T06:00:07.074Z,16.17
2023-05-22T06:02:33.550Z,16.14
2023-05-22T06:04:59.963Z,16.19
2023-05-22T06:07:26.328Z,16.25
2023-05-22T06:09:52.724Z,16.27
2023-05-22T06:12:19.084Z,16.37
2023-05-22T06:14:45.459Z,16.41
2023-05-22T06:17:11.887Z,16.59
2023-05-22T06:19:38.283Z,16.59
2023-05-22T06:22:05.813Z,16.70
2023-05-22T06:24:32.192Z,16.71
2023-05-22T06:26:58.559Z,16.91
2023-05-22T06:29:24.928Z,16.85
2023-05-22T06:31:51.363Z,16.86
2023-05-22T06:34:17.778Z,16.93
2023-05-22T06:36:44.170Z,17.06
2023-05-22T06:39:10.517Z,17.04
2023-05-22T06:41:37.938Z,17.03
2023-05-22T06:44:04.303Z,17.09
2023-05-22T06:46:30.804Z,17.07
2023-05-22T06:48:57.225Z,17.23
2023-05-22T06:51:23.620Z,17.31
2023-05-22T06:53:49.986Z,17.38
2023-05-22T06:56:16.344Z,17.37
2023-05-22T06:58:42.712Z,17.40
2023-05-22T07:01:09.086Z,17.47
2023-05-22T07:03:35.453Z,17.31
2023-05-22T07:06:01.865Z,17.24
2023-05-22T07:08:30.423Z,17.29
2023-05-22T07:10:57.164Z,17.43
2023-05-22T07:13:23.513Z,17.33
2023-05-22T07:15:49.872Z,17.47
2023-05-22T07:18:16.234Z,17.30
2023-05-22T07:20:42.780Z,17.36
2023-05-22T07:23:09.273Z,17.41
2023-05-22T07:25:35.630Z,17.50
2023-05-22T07:28:01.995Z,17.54
2023-05-22T07:30:28.362Z,17.47
2023-05-22T07:32:54.770Z,17.52
2023-05-22T07:35:21.177Z,17.62
2023-05-22T07:37:47.584Z,17.66
2023-05-22T07:40:13.934Z,17.69
2023-05-22T07:42:40.331Z,17.79
2023-05-22T07:45:06.709Z,17.74
2023-05-22T07:47:33.112Z,17.79
2023-05-22T07:49:59.496Z,17.81
2023-05-22T07:52:25.885Z,17.97
2023-05-22T07:54:52.239Z,17.98
2023-05-22T07:57:18.599Z,18.04
2023-05-22T07:59:44.971Z,18.11
2023-05-22T08:02:11.372Z,18.16
2023-05-22T08:04:37.872Z,18.28
2023-05-22T08:07:04.376Z,18.40
2023-05-22T08:09:30.757Z,18.43
2023-05-22T08:11:57.130Z,18.54
2023-05-22T08:14:23.510Z,18.59
2023-05-22T08:16:49.964Z,18.73
2023-05-22T08:19:16.620Z,18.78
2023-05-22T08:21:43.049Z,18.96
2023-05-22T08:24:09.400Z,19.05
2023-05-22T08:26:35.786Z,18.95
2023-05-22T08:29:02.156Z,19.06
2023-05-22T08:31:28.575Z,19.08
2023-05-22T08:33:54.945Z,19.05
2023-05-22T08:36:21.312Z,19.17
2023-05-22T08:38:47.682Z,19.29
2023-05-22T08:41:14.043Z,19.25
2023-05-22T08:43:40.394Z,19.29
2023-05-22T08:46:06.858Z,19.43
2023-05-22T08:48:33.247Z,19.39
2023-05-22T08:50:59.627Z,19.63
2023-05-22T08:53:26.189Z,19.77
2023-05-22T08:55:52.616Z,19.88
2023-05-22T08:58:19.028Z,19.99
2023-05-22T09:00:45.491Z,20.02
2023-05-22T09:03:11.997Z,20.18
2023-05-22T09:05:38.425Z,20.33
2023-05-22T09:08:15.955Z,20.32
2023-05-22T09:10:45.819Z,20.33
2023-05-22T09:13:12.170Z,20.35
2023-05-22T09:15:38.547Z,20.42
2023-05-22T09:18:05.005Z,20.46
2023-05-22T09:20:31.409Z,20.52
2023-05-22T09:22:57.761Z,20.56
2023-05-22T09:25:24.125Z,20.52
2023-05-22T09:27:50.576Z,20.63
2023-05-22T09:30:16.939Z,20.70
2023-05-22T09:32:43.348Z,20.75
2023-05-22T09:35:09.781Z,20.87
2023-05-22T09:37:36.156Z,21.04
2023-05-22T09:40:02.551Z,21.17
2023-05-22T09:42:28.911Z,21.22
2023-05-22T09:44:55.263Z,21.23
2023-05-22T09:47:21.620Z,21.34
2023-05-22T09:49:48.017Z,21.45
2023-05-22T09:52:14.375Z,21.48
2023-05-22T09:54:40.729Z,21.50
2023-05-22T09:57:07.123Z,21.69
2023-05-22T09:59:33.503Z,21.76
2023-05-22T10:01:59.917Z,21.81
2023-05-22T10:04:26.384Z,21.90
2023-05-22T10:06:52.761Z,21.98
2023-05-22T10:09:19.644Z,21.95
2023-05-22T10:11:46.192Z,22.11
2023-05-22T10:14:12.567Z,22.20
2023-05-22T10:16:39.047Z,22.37
2023-05-22T10:19:05.503Z,22.38
2023-05-22T10:21:31.887Z,22.56
2023-05-22T10:23:58.251Z,22.59
2023-05-22T10:26:24.626Z,22.83
2023-05-22T10:28:50.976Z,22.97
2023-05-22T10:31:17.988Z,23.04
2023-05-22T10:33:44.461Z,23.16
2023-05-22T10:36:10.831Z,23.27
2023-05-22T10:38:37.200Z,23.37
2023-05-22T10:41:03.585Z,23.54
2023-05-22T10:43:29.973Z,23.54
2023-05-22T10:45:56.346Z,23.55
2023-05-22T10:48:22.785Z,23.48
2023-05-22T10:50:49.273Z,23.60
2023-05-22T10:53:15.654Z,23.57
2023-05-22T10:55:42.032Z,23.61
2023-05-22T10:58:08.385Z,23.74
2023-05-22T11:00:34.745Z,23.85
2023-05-22T11:03:09.934Z,23.87
2023-05-22T11:05:43.320Z,24.02
2023-05-22T11:08:09.695Z,24.18
2023-05-22T11:10:36.064Z,24.35
2023-05-22T11:13:02.429Z,24.41
2023-05-22T11:15:28.793Z,24.48
2023-05-22T11:17:55.355Z,24.57
2023-05-22T11:20:21.801Z,24.61
2023-05-22T11:22:48.157Z,24.60
2023-05-22T11:25:14.558Z,24.63
2023-05-22T11:27:40.931Z,24.59
2023-05-22T11:30:07.305Z,24.71
2023-05-22T11:32:33.698Z,24.76
2023-05-22T11:35:00.069Z,24.80
2023-05-22T11:37:26.445Z,24.80
2023-05-22T11:39:52.820Z,24.91
2023-05-22T11:42:19.178Z,25.04
2023-05-22T11:44:45.528Z,25.12
2023-05-22T11:47:12.073Z,25.20
2023-05-22T11:49:38.456Z,25.23
2023-05-22T11:52:04.832Z,25.28
2023-05-22T11:54:31.201Z,25.12
2023-05-22T11:56:57.576Z,25.04
2023-05-22T11:59:23.966Z,25.13
2023-05-22T12:01:50.397Z,25.01
2023-05-22T12:04:16.874Z,25.04
2023-05-22T12:06:43.324Z,25.09
2023-05-22T12:09:09.852Z,25.25
2023-05-22T12:11:36.206Z,25.34
2023-05-22T12:14:02.595Z,25.31
2023-05-22T12:16:28.995Z,25.38
2023-05-22T12:18:55.438Z,25.51
2023-05-22T12:21:21.818Z,25.61
2023-05-22T12:23:48.182Z,25.73
2023-05-22T12:26:14.545Z,25.60
2023-05-22T12:28:40.898Z,25.47
2023-05-22T12:31:07.314Z,25.23
2023-05-22T12:33:33.714Z,25.20
2023-05-22T12:36:00.102Z,25.36
2023-05-22T12:38:26.473Z,25.46
2023-05-22T12:40:52.837Z,25.38
2023-05-22T12:43:19.207Z,25.30
2023-05-22T12:45:45.580Z,25.29
2023-05-22T12:48:12.012Z,24.97
2023-05-22T12:50:38.680Z,24.92
2023-05-22T12:53:05.266Z,24.73
2023-05-22T12:55:31.674Z,24.65
2023-05-22T12:57:58.054Z,24.79
2023-05-22T13:00:24.432Z,24.82
2023-05-22T13:02:50.873Z,25.01
2023-05-22T13:05:17.327Z,25.15
2023-05-22T13:07:43.821Z,25.27
2023-05-22T13:10:10.246Z,25.48
2023-05-22T13:12:36.621Z,25.62
2023-05-22T13:15:03.006Z,25.89
2023-05-22T13:17:29.388Z,25.99
2023-05-22T13:19:55.763Z,26.12
2023-05-22T13:22:22.117Z,26.13
2023-05-22T13:24:48.470Z,26.23
2023-05-22T13:27:14.855Z,26.38
2023-05-22T13:29:41.236Z,26.46
2023-05-22T13:32:07.587Z,26.52
2023-05-22T13:34:34.008Z,26.61
2023-05-22T13:37:00.569Z,26.70
2023-05-22T13:39:26.944Z,26.75
2023-05-22T13:41:53.324Z,26.93
2023-05-22T13:44:19.673Z,27.02
2023-05-22T13:46:46.119Z,27.03
2023-05-22T13:49:12.524Z,27.06
2023-05-22T13:51:38.904Z,27.14
2023-05-22T13:54:05.316Z,27.24
2023-05-22T13:56:31.711Z,27.30
2023-05-22T13:58:58.105Z,27.45
2023-05-22T14:01:24.509Z,27.69
2023-05-22T14:03:50.891Z,27.69
2023-05-22T14:06:17.257Z,27.82
2023-05-22T14:08:43.614Z,27.68
2023-05-22T14:11:09.971Z,27.34
2023-05-22T14:13:36.323Z,27.16
2023-05-22T14:16:02.685Z,27.07
2023-05-22T14:18:29.027Z,27.03
2023-05-22T14:20:55.387Z,26.96
2023-05-22T14:23:21.766Z,26.69
2023-05-22T14:25:48.134Z,26.65
2023-05-22T14:28:14.504Z,26.63
2023-05-22T14:30:40.915Z,26.72
2023-05-22T14:33:07.432Z,26.60
2023-05-22T14:35:33.815Z,26.43
2023-05-22T14:38:00.174Z,26.33
2023-05-22T14:40:26.538Z,26.28
2023-05-22T14:42:54.386Z,26.42
2023-05-22T14:45:20.993Z,26.47
2023-05-22T14:47:47.398Z,26.51
2023-05-22T14:50:22.489Z,26.67
2023-05-22T14:52:49.451Z,27.03
2023-05-22T14:55:16.067Z,27.03
2023-05-22T14:57:42.427Z,27.23
2023-05-22T15:00:08.794Z,27.53
2023-05-22T15:02:35.202Z,27.26
2023-05-22T15:05:01.650Z,27.27
2023-05-22T15:07:39.623Z,27.22
2023-05-22T15:10:10.012Z,27.25
2023-05-22T15:12:36.409Z,27.33
2023-05-22T15:15:02.764Z,27.25
2023-05-22T15:17:29.179Z,27.09
2023-05-22T15:19:55.562Z,26.92
2023-05-22T15:22:21.933Z,26.79
2023-05-22T15:24:48.312Z,26.80
2023-05-22T15:27:14.665Z,26.91
2023-05-22T15:29:41.039Z,27.12
2023-05-22T15:32:07.460Z,27.16
2023-05-22T15:34:35.303Z,27.23
2023-05-22T15:37:01.664Z,27.25
2023-05-22T15:39:28.022Z,27.27
2023-05-22T15:42:05.867Z,27.25
2023-05-22T15:44:33.272Z,27.11
2023-05-22T15:46:59.637Z,27.23
2023-05-22T15:49:27.404Z,27.44
2023-05-22T15:52:00.056Z,27.48
2023-05-22T15:54:26.442Z,27.49
2023-05-22T15:56:52.835Z,27.50
2023-05-22T15:59:19.209Z,27.57
2023-05-22T16:01:45.722Z,27.45
2023-05-22T16:04:12.188Z,27.45
2023-05-22T16:06:38.566Z,27.49
2023-05-22T16:09:04.936Z,27.67
2023-05-22T16:11:31.314Z,27.72
2023-05-22T16:13:57.679Z,27.54
2023-05-22T16:16:24.087Z,27.62
2023-05-22T16:18:50.488Z,27.32
2023-05-22T16:21:16.869Z,27.24
2023-05-22T16:23:43.285Z,26.84
2023-05-22T16:26:09.666Z,26.61
2023-05-22T16:28:36.027Z,26.56
2023-05-22T16:31:02.441Z,26.38
2023-05-22T16:33:28.856Z,26.39
2023-05-22T16:35:55.249Z,26.43
2023-05-22T16:38:21.630Z,26.21
2023-05-22T16:40:47.972Z,26.13
2023-05-22T16:43:14.350Z,26.15
2023-05-22T16:45:40.943Z,26.08
2023-05-22T16:48:07.650Z,25.77
2023-05-22T16:50:34.057Z,25.70
2023-05-22T16:53:00.429Z,25.77
2023-05-22T16:55:26.888Z,25.92
2023-05-22T16:57:53.265Z,26.06
2023-05-22T17:00:20.115Z,25.93
2023-05-22T17:02:46.688Z,26.11
2023-05-22T17:05:13.212Z,25.93
2023-05-22T17:07:39.605Z,25.84
2023-05-22T17:10:05.974Z,25.66
2023-05-22T17:12:32.354Z,25.77
2023-05-22T17:14:58.707Z,25.98
2023-05-22T17:17:25.151Z,25.95
2023-05-22T17:19:51.560Z,25.90
2023-05-22T17:22:17.939Z,25.79
2023-05-22T17:24:44.296Z,25.65
2023-05-22T17:27:11.103Z,25.66
2023-05-22T17:29:37.505Z,25.86
2023-05-22T17:32:03.889Z,25.48
2023-05-22T17:34:30.247Z,25.32
2023-05-22T17:36:56.617Z,25.40
2023-05-22T17:39:23.425Z,25.14
2023-05-22T17:41:49.841Z,25.15
2023-05-22T17:44:16.195Z,25.02
2023-05-22T17:46:42.591Z,25.14
2023-05-22T17:49:09.027Z,25.25
2023-05-22T17:51:35.402Z,25.32
2023-05-22T17:54:01.803Z,25.49
2023-05-22T17:56:28.173Z,25.53
2023-05-22T17:58:54.531Z,25.44
2023-05-22T18:01:20.959Z,25.58
2023-05-22T18:03:47.583Z,25.33
2023-05-22T18:06:14.150Z,25.19
2023-05-22T18:08:40.558Z,25.12
2023-05-22T18:11:06.937Z,25.09
2023-05-22T18:13:33.295Z,25.10
2023-05-22T18:15:59.710Z,24.94
2023-05-22T18:18:26.135Z,25.10
2023-05-22T18:20:52.487Z,25.07
2023-05-22T18:23:18.832Z,25.12
2023-05-22T18:25:45.215Z,24.98
2023-05-22T18:28:11.600Z,24.91
2023-05-22T18:30:38.052Z,24.71
2023-05-22T18:33:04.610Z,24.51
2023-05-22T18:35:31.031Z,24.39
2023-05-22T18:37:57.389Z,24.29
2023-05-22T18:40:23.758Z,24.25
2023-05-22T18:42:50.125Z,24.23
2023-05-22T18:45:16.490Z,24.06
2023-05-22T18:47:42.873Z,23.90
2023-05-22T18:50:09.295Z,23.95
2023-05-22T18:52:35.659Z,23.69
2023-05-22T18:55:02.021Z,23.55
2023-05-22T18:57:28.383Z,23.44
2023-05-22T18:59:54.755Z,23.41
2023-05-22T19:02:21.185Z,23.27
2023-05-22T19:04:47.654Z,23.23
2023-05-22T19:07:14.133Z,23.26
2023-05-22T19:09:40.473Z,23.21
2023-05-22T19:12:06.831Z,23.15
2023-05-22T19:14:33.216Z,22.99
2023-05-22T19:16:59.685Z,22.87
2023-05-22T19:19:26.237Z,22.70
2023-05-22T19:21:52.632Z,22.67
2023-05-22T19:24:18.997Z,22.57
2023-05-22T19:26:45.350Z,22.43
2023-05-22T19:29:11.692Z,22.29
2023-05-22T19:31:38.269Z,22.21
2023-05-22T19:34:04.681Z,22.11
2023-05-22T19:36:31.053Z,22.03
2023-05-22T19:38:57.440Z,21.87
2023-05-22T19:41:23.792Z,21.75
2023-05-22T19:43:50.146Z,21.52
2023-05-22T19:46:16.559Z,21.37
2023-05-22T19:48:42.963Z,21.20
2023-05-22T19:51:09.349Z,21.14
2023-05-22T19:53:35.708Z,20.79
2023-05-22T19:56:02.077Z,20.63
2023-05-22T19:58:28.429Z,20.47
2023-05-22T20:00:54.790Z,20.42
2023-05-22T20:03:21.259Z,20.41
2023-05-22T20:05:47.693Z,20.45
2023-05-22T20:08:14.061Z,20.42
2023-05-22T20:10:40.613Z,20.46
2023-05-22T20:13:07.152Z,20.45
2023-05-22T20:15:33.512Z,20.42
2023-05-22T20:17:59.959Z,20.37
2023-05-22T20:20:26.369Z,20.43
2023-05-22T20:22:52.804Z,20.32
2023-05-22T20:25:19.178Z,20.40
2023-05-22T20:27:45.550Z,20.27
2023-05-22T20:30:11.941Z,20.16
2023-05-22T20:32:38.300Z,19.95
2023-05-22T20:35:04.697Z,19.85
2023-05-22T20:37:31.068Z,19.73
2023-05-22T20:39:57.448Z,19.71
2023-05-22T20:42:23.828Z,19.64
2023-05-22T20:44:50.183Z,19.53
2023-05-22T20:47:16.530Z,19.49
2023-05-22T20:49:42.906Z,19.46
2023-05-22T20:52:09.254Z,19.42
2023-05-22T20:54:35.624Z,19.33
2023-05-22T20:57:02.042Z,19.29
2023-05-22T20:59:28.432Z,19.43
2023-05-22T21:01:54.806Z,19.45
2023-05-22T21:04:21.189Z,19.44
2023-05-22T21:06:47.600Z,19.49
2023-05-22T21:09:13.961Z,19.49
2023-05-22T21:11:40.341Z,19.44
2023-05-22T21:14:06.721Z,19.42
2023-05-22T21:16:33.115Z,19.54
2023-05-22T21:18:59.601Z,19.58
2023-05-22T21:21:25.989Z,19.56
2023-05-22T21:23:52.350Z,19.54
2023-05-22T21:26:18.700Z,19.51
2023-05-22T21:28:45.296Z,19.46
2023-05-22T21:31:11.689Z,19.48
2023-05-22T21:33:38.066Z,19.38
2023-05-22T21:36:04.686Z,19.13
2023-05-22T21:38:31.069Z,19.01
2023-05-22T21:40:57.430Z,18.90
2023-05-22T21:43:23.938Z,18.80
2023-05-22T21:45:50.339Z,18.79
2023-05-22T21:48:16.708Z,18.71
2023-05-22T21:50:43.093Z,18.65
2023-05-22T21:53:09.461Z,18.63
2023-05-22T21:55:35.833Z,18.79
2023-05-22T21:58:02.201Z,18.85
2023-05-22T22:00:28.628Z,18.97
2023-05-22T22:02:55.177Z,18.85
2023-05-22T22:05:21.613Z,18.86
2023-05-22T22:07:47.985Z,18.95
2023-05-22T22:10:14.358Z,18.96
2023-05-22T22:12:40.754Z,18.93
2023-05-22T22:15:07.130Z,19.04
2023-05-22T22:17:33.600Z,19.08
2023-05-22T22:20:00.013Z,19.05
2023-05-22T22:22:26.446Z,19.04
2023-05-22T22:24:52.813Z,18.89
2023-05-22T22:27:19.185Z,18.68
2023-05-22T22:29:45.586Z,18.55
2023-05-22T22:32:12.053Z,18.45
2023-05-22T22:34:38.549Z,18.36
2023-05-22T22:37:04.926Z,18.26
2023-05-22T22:39:31.282Z,18.29
2023-05-22T22:41:57.650Z,18.31
2023-05-22T22:44:24.051Z,18.30
2023-05-22T22:46:50.429Z,18.29
2023-05-22T22:49:16.802Z,18.23
2023-05-22T22:51:43.177Z,18.28
2023-05-22T22:54:09.549Z,18.28
2023-05-22T22:56:36.203Z,18.30
2023-05-22T22:59:02.625Z,18.29
2023-05-22T23:01:29.042Z,18.23
2023-05-22T23:03:55.500Z,18.13
2023-05-22T23:06:21.890Z,17.99
2023-05-22T23:08:48.255Z,17.96
2023-05-22T23:11:14.606Z,17.93
2023-05-22T23:13:41.233Z,17.86
2023-05-22T23:16:07.865Z,17.74
2023-05-22T23:18:34.240Z,17.71
2023-05-22T23:21:00.638Z,17.74
2023-05-22T23:23:27.006Z,17.76
2023-05-22T23:25:53.373Z,17.82
2023-05-22T23:28:19.749Z,17.98
2023-05-22T23:30:46.139Z,17.99
2023-05-22T23:33:12.500Z,17.98
2023-05-22T23:35:39.181Z,17.87
2023-05-22T23:38:05.874Z,17.89
2023-05-22T23:40:32.281Z,17.99
2023-05-22T23:42:58.643Z,18.06
2023-05-22T23:45:25.000Z,18.02
2023-05-22T23:47:51.436Z,18.01
2023-05-22T23:50:17.847Z,17.86
2023-05-22T23:52:44.220Z,17.53
2023-05-22T23:55:10.596Z,17.43
2023-05-22T23:57:36.950Z,17.38
